Terminal Aerodrome Forecast
Issued by NWS State College, PA

Home | Current Version | Previous Version | Text Only | Print | Product List | Glossary On
Versions: 1 2 3 4 5 6 7 8 9 10 11 12 13 14 15 16 17 18 19 20 21 22 23 24 25 26 27 28
000
FTUS41 KCTP 231632 AAB
TAFMDT
TAF AMD
KMDT 231632Z 2317/2412 35007KT P6SM SKC
     FM231710 31008G20KT P6SM SCT050
     FM240100 35005KT P6SM SCT040=

USA.gov is the U.S. government's official web portal to all federal, state and local government web resources and services.